Great Republic — WDH7561 — position and weather

sailwx.info

Track history (hours):
 
Tides and Currents Weather Stations Pressure Air Temp Water Temp Dewpoint Dewpoint Depression Visibility Wind Speed Wind Dir Waves Ship Positions

Great Republic

Owner: Great Lakes Fleet, Inc., Homewood, IL. More information available from US FCC via Universal Licensing System and Coast Guard Vessel Documentation Center.

Last reported at 2017-Sep-19 23:00 UTC. Time now 2017-Sep-21 23:17 UTC.
Position N 44°18' W 082°36'.

Length 202 m; draft 7 m.

Type: . MMSI: 368183000.

Wind from 070 at 15 knots

Barometer 1017.9 mb
Air temperature 18.3 ° C
Visibility: greater than 5.4 NM

Date/timePositionNaut miles runAvg speedWind from/ knotsBaromVisibWave heightAir tempDewpointWater temp
2017-Sep-19 23:00N 44°18' W 082°36'2813.4 070 / 151017.9 5.4 18.3
2017-Sep-19 20:53N 44°45' W 082°49'412.1
2017-Sep-19 20:30N 44°49' W 082°51'611.9
2017-Sep-19 20:00N 44°55' W 082°54'611.9
2017-Sep-19 19:28N 45°01' W 082°57'2611.2
2017-Sep-19 17:10N 45°18' W 083°24'0 2.0
2017-Sep-19 16:56N 45°18' W 083°25'0 0.2
2017-Sep-19 15:44N 45°18' W 083°25'0 0.0
2017-Sep-19 15:21N 45°18' W 083°25'0 0.0
2017-Sep-19 14:44N 45°18' W 083°25'0 0.0
2017-Sep-19 11:17N 45°18' W 083°25'0 0.0
2017-Sep-19 10:55N 45°18' W 083°25'0 0.0
2017-Sep-19 10:30N 45°18' W 083°25'0 0.0
2017-Sep-19 10:00N 45°18' W 083°25'0 0.0
2017-Sep-19 09:30N 45°18' W 083°25'0 0.0
2017-Sep-19 09:00N 45°18' W 083°25'0 0.0
2017-Sep-19 08:30N 45°18' W 083°25'0 0.0
2017-Sep-19 08:00N 45°18' W 083°25'0 0.0
2017-Sep-19 07:30N 45°18' W 083°25'0 0.0
2017-Sep-19 06:44N 45°18' W 083°25'0 0.0
2017-Sep-19 06:30N 45°18' W 083°25'0 0.0
2017-Sep-19 05:58N 45°18' W 083°25'0 0.0
2017-Sep-19 05:28N 45°18' W 083°25'0 0.0
2017-Sep-19 04:57N 45°18' W 083°25'0 0.0
2017-Sep-19 04:30N 45°18' W 083°25'1 1.5
2017-Sep-19 04:00N 45°18' W 083°24'1 1.2
2017-Sep-19 03:30N 45°18' W 083°25'0 0.1
2017-Sep-19 02:54N 45°18' W 083°25'0 0.0
2017-Sep-19 02:27N 45°18' W 083°25'0 0.0
2017-Sep-19 01:49N 45°18' W 083°25'0 0.0
2017-Sep-19 01:30N 45°18' W 083°25'0 0.0
2017-Sep-18 23:50N 45°18' W 083°25'1 0.1
2017-Sep-18 14:53N 45°19' W 083°25'410.4
2017-Sep-18 14:30N 45°23' W 083°27'612.0
2017-Sep-18 14:00N 45°26' W 083°35'612.2
2017-Sep-18 13:30N 45°29' W 083°42'612.2
2017-Sep-18 13:00N 45°32' W 083°50'612.3
2017-Sep-18 12:29N 45°35' W 083°58'612.3
2017-Sep-18 12:00N 45°38' W 084°05'612.5
2017-Sep-18 11:29N 45°41' W 084°13'611.8
2017-Sep-18 11:00N 45°41' W 084°21'612.1
2017-Sep-18 10:30N 45°43' W 084°30'612.4
2017-Sep-18 10:00N 45°46' W 084°37'10641.6
2017-Sep-18 10:00N 45°36' W 084°36'1429.9 010 / 81021.310.8 12.7
2017-Sep-18 09:30N 45°49' W 084°45'612.4
2017-Sep-18 09:00N 45°49' W 084°54'612.3
2017-Sep-18 08:30N 45°49' W 085°03'5 9.1
2017-Sep-18 08:00N 45°47' W 085°09'5 9.7
2017-Sep-18 07:30N 45°43' W 085°12'612.1
2017-Sep-18 07:00N 45°38' W 085°17'612.2
2017-Sep-18 06:30N 45°33' W 085°22'612.1
2017-Sep-18 06:00N 45°28' W 085°27'3178.4
2017-Sep-18 06:00N 45°30' W 085°24'918.1 050 / 151022.010.8 14.4
2017-Sep-18 05:30N 45°24' W 085°33'612.0
2017-Sep-18 05:00N 45°19' W 085°38'611.9
2017-Sep-18 04:30N 45°14' W 085°43'611.9
2017-Sep-18 04:00N 45°09' W 085°48'5911.8
2017-Sep-17 23:00N 44°18' W 086°30'42 1.8 300 / 121018.910.8 19.4
2017-Sep-16 23:00N 43°36' W 086°36'95 9.2 180 / 151019.210.8 21.1
2017-Sep-16 12:40N 45°06' W 085°54'211.8
2017-Sep-16 12:30N 45°07' W 085°52'611.9
2017-Sep-16 12:00N 45°12' W 085°47'611.9
2017-Sep-16 11:30N 45°17' W 085°42'611.9
2017-Sep-16 11:00N 45°22' W 085°37'611.8
2017-Sep-16 10:30N 45°26' W 085°32'611.7
2017-Sep-16 10:00N 45°31' W 085°27'611.8
2017-Sep-16 09:30N 45°36' W 085°22'611.9
2017-Sep-16 09:00N 45°40' W 085°17'4302.5
2017-Sep-16 09:00N 45°36' W 085°18'1020.5 200 / 131019.610.8 19.4
2017-Sep-16 08:30N 45°45' W 085°11'5 9.0
2017-Sep-16 08:00N 45°49' W 085°09'510.6
2017-Sep-16 07:30N 45°50' W 085°01'612.2
2017-Sep-16 07:00N 45°49' W 084°52'612.3
2017-Sep-16 06:30N 45°49' W 084°44'612.1
2017-Sep-16 06:00N 45°46' W 084°36'612.1
2017-Sep-16 05:30N 45°43' W 084°29'611.8
2017-Sep-16 05:00N 45°41' W 084°21'611.5
2017-Sep-16 04:30N 45°40' W 084°13'612.4
2017-Sep-16 04:00N 45°37' W 084°05'612.4
2017-Sep-16 03:30N 45°34' W 083°57'612.4
2017-Sep-16 03:00N 45°31' W 083°49'612.4
2017-Sep-16 02:30N 45°28' W 083°41'612.4
2017-Sep-16 02:00N 45°25' W 083°33'611.7
2017-Sep-16 01:30N 45°22' W 083°27'13 1.0
2017-Sep-15 12:16N 45°12' W 083°14'312.3
2017-Sep-15 12:00N 45°10' W 083°10'612.1
2017-Sep-15 11:30N 45°05' W 083°06'612.3
2017-Sep-15 10:59N 44°59' W 083°03'  
2017-Sep-12 18:00N 44°48' W 082°54'37 4.8 240 / 71017.9 5.4 17.7
2017-Sep-12 10:13N 45°18' W 083°25'0 0.0
2017-Sep-12 10:00N 45°18' W 083°25'0 0.0
2017-Sep-12 09:21N 45°18' W 083°25'0 0.0
2017-Sep-12 09:00N 45°18' W 083°25'1 0.1
2017-Sep-12 02:44N 45°18' W 083°24'  
Track history (hours):
 
Tides and Currents Weather Stations Pressure Air Temp Water Temp Dewpoint Dewpoint Depression Visibility Wind Speed Wind Dir Waves Ship Positions

Great Republic

Owner: Great Lakes Fleet, Inc., Homewood, IL. More information available from US FCC via Universal Licensing System and Coast Guard Vessel Documentation Center.

Last reported at 2017-Sep-19 23:00 UTC. Time now 2017-Sep-21 23:17 UTC.
Position N 44°18' W 082°36'.

Length 202 m; draft 7 m.

Type: . MMSI: 368183000.

Wind from 070 at 15 knots

Barometer 1017.9 mb
Air temperature 18.3 ° C
Visibility: greater than 5.4 NM

Date/timePositionNaut miles runAvg speedWind from/ knotsBaromVisibWave heightAir tempDewpointWater temp
2017-Sep-19 23:00N 44°18' W 082°36'2813.4 070 / 151017.9 5.4 18.3
2017-Sep-19 20:53N 44°45' W 082°49'412.1
2017-Sep-19 20:30N 44°49' W 082°51'611.9
2017-Sep-19 20:00N 44°55' W 082°54'611.9
2017-Sep-19 19:28N 45°01' W 082°57'2611.2
2017-Sep-19 17:10N 45°18' W 083°24'0 2.0
2017-Sep-19 16:56N 45°18' W 083°25'0 0.2
2017-Sep-19 15:44N 45°18' W 083°25'0 0.0
2017-Sep-19 15:21N 45°18' W 083°25'0 0.0
2017-Sep-19 14:44N 45°18' W 083°25'0 0.0
2017-Sep-19 11:17N 45°18' W 083°25'0 0.0
2017-Sep-19 10:55N 45°18' W 083°25'0 0.0
2017-Sep-19 10:30N 45°18' W 083°25'0 0.0
2017-Sep-19 10:00N 45°18' W 083°25'0 0.0
2017-Sep-19 09:30N 45°18' W 083°25'0 0.0
2017-Sep-19 09:00N 45°18' W 083°25'0 0.0
2017-Sep-19 08:30N 45°18' W 083°25'0 0.0
2017-Sep-19 08:00N 45°18' W 083°25'0 0.0
2017-Sep-19 07:30N 45°18' W 083°25'0 0.0
2017-Sep-19 06:44N 45°18' W 083°25'0 0.0
2017-Sep-19 06:30N 45°18' W 083°25'0 0.0
2017-Sep-19 05:58N 45°18' W 083°25'0 0.0
2017-Sep-19 05:28N 45°18' W 083°25'0 0.0
2017-Sep-19 04:57N 45°18' W 083°25'0 0.0
2017-Sep-19 04:30N 45°18' W 083°25'1 1.5
2017-Sep-19 04:00N 45°18' W 083°24'1 1.2
2017-Sep-19 03:30N 45°18' W 083°25'0 0.1
2017-Sep-19 02:54N 45°18' W 083°25'0 0.0
2017-Sep-19 02:27N 45°18' W 083°25'0 0.0
2017-Sep-19 01:49N 45°18' W 083°25'0 0.0
2017-Sep-19 01:30N 45°18' W 083°25'0 0.0
2017-Sep-18 23:50N 45°18' W 083°25'1 0.1
2017-Sep-18 14:53N 45°19' W 083°25'410.4
2017-Sep-18 14:30N 45°23' W 083°27'612.0
2017-Sep-18 14:00N 45°26' W 083°35'612.2
2017-Sep-18 13:30N 45°29' W 083°42'612.2
2017-Sep-18 13:00N 45°32' W 083°50'612.3
2017-Sep-18 12:29N 45°35' W 083°58'612.3
2017-Sep-18 12:00N 45°38' W 084°05'612.5
2017-Sep-18 11:29N 45°41' W 084°13'611.8
2017-Sep-18 11:00N 45°41' W 084°21'612.1
2017-Sep-18 10:30N 45°43' W 084°30'612.4
2017-Sep-18 10:00N 45°46' W 084°37'10641.6
2017-Sep-18 10:00N 45°36' W 084°36'1429.9 010 / 81021.310.8 12.7
2017-Sep-18 09:30N 45°49' W 084°45'612.4
2017-Sep-18 09:00N 45°49' W 084°54'612.3
2017-Sep-18 08:30N 45°49' W 085°03'5 9.1
2017-Sep-18 08:00N 45°47' W 085°09'5 9.7
2017-Sep-18 07:30N 45°43' W 085°12'612.1
2017-Sep-18 07:00N 45°38' W 085°17'612.2
2017-Sep-18 06:30N 45°33' W 085°22'612.1
2017-Sep-18 06:00N 45°28' W 085°27'3178.4
2017-Sep-18 06:00N 45°30' W 085°24'918.1 050 / 151022.010.8 14.4
2017-Sep-18 05:30N 45°24' W 085°33'612.0
2017-Sep-18 05:00N 45°19' W 085°38'611.9
2017-Sep-18 04:30N 45°14' W 085°43'611.9
2017-Sep-18 04:00N 45°09' W 085°48'5911.8
2017-Sep-17 23:00N 44°18' W 086°30'42 1.8 300 / 121018.910.8 19.4
2017-Sep-16 23:00N 43°36' W 086°36'95 9.2 180 / 151019.210.8 21.1
2017-Sep-16 12:40N 45°06' W 085°54'211.8
2017-Sep-16 12:30N 45°07' W 085°52'611.9
2017-Sep-16 12:00N 45°12' W 085°47'611.9
2017-Sep-16 11:30N 45°17' W 085°42'611.9
2017-Sep-16 11:00N 45°22' W 085°37'611.8
2017-Sep-16 10:30N 45°26' W 085°32'611.7
2017-Sep-16 10:00N 45°31' W 085°27'611.8
2017-Sep-16 09:30N 45°36' W 085°22'611.9
2017-Sep-16 09:00N 45°40' W 085°17'4302.5
2017-Sep-16 09:00N 45°36' W 085°18'1020.5 200 / 131019.610.8 19.4
2017-Sep-16 08:30N 45°45' W 085°11'5 9.0
2017-Sep-16 08:00N 45°49' W 085°09'510.6
2017-Sep-16 07:30N 45°50' W 085°01'612.2
2017-Sep-16 07:00N 45°49' W 084°52'612.3
2017-Sep-16 06:30N 45°49' W 084°44'612.1
2017-Sep-16 06:00N 45°46' W 084°36'612.1
2017-Sep-16 05:30N 45°43' W 084°29'611.8
2017-Sep-16 05:00N 45°41' W 084°21'611.5
2017-Sep-16 04:30N 45°40' W 084°13'612.4
2017-Sep-16 04:00N 45°37' W 084°05'612.4
2017-Sep-16 03:30N 45°34' W 083°57'612.4
2017-Sep-16 03:00N 45°31' W 083°49'612.4
2017-Sep-16 02:30N 45°28' W 083°41'612.4
2017-Sep-16 02:00N 45°25' W 083°33'611.7
2017-Sep-16 01:30N 45°22' W 083°27'13 1.0
2017-Sep-15 12:16N 45°12' W 083°14'312.3
2017-Sep-15 12:00N 45°10' W 083°10'612.1
2017-Sep-15 11:30N 45°05' W 083°06'612.3
2017-Sep-15 10:59N 44°59' W 083°03'  
2017-Sep-12 18:00N 44°48' W 082°54'37 4.8 240 / 71017.9 5.4 17.7
2017-Sep-12 10:13N 45°18' W 083°25'0 0.0
2017-Sep-12 10:00N 45°18' W 083°25'0 0.0
2017-Sep-12 09:21N 45°18' W 083°25'0 0.0
2017-Sep-12 09:00N 45°18' W 083°25'1 0.1
2017-Sep-12 02:44N 45°18' W 083°24'  

Dump ship's entire track history